sensor_id;sensor_type;location;lat;lon;timestamp;P1;durP1;ratioP1;P2;durP2;ratioP2
57225;SDS011;43082;43.568;22.256;2023-02-27T00:00:37;14.95;;;8.90;;
57225;SDS011;43082;43.568;22.256;2023-02-27T00:03:03;13.63;;;8.75;;
57225;SDS011;43082;43.568;22.256;2023-02-27T00:05:28;15.27;;;9.40;;
57225;SDS011;43082;43.568;22.256;2023-02-27T00:07:53;14.25;;;8.70;;
57225;SDS011;43082;43.568;22.256;2023-02-27T00:10:19;17.02;;;9.43;;
57225;SDS011;43082;43.568;22.256;2023-02-27T00:12:44;13.93;;;8.45;;
57225;SDS011;43082;43.568;22.256;2023-02-27T00:15:11;16.08;;;10.30;;
57225;SDS011;43082;43.568;22.256;2023-02-27T00:17:38;16.23;;;9.45;;
57225;SDS011;43082;43.568;22.256;2023-02-27T00:20:04;10.98;;;6.70;;
57225;SDS011;43082;43.568;22.256;2023-02-27T00:22:31;13.98;;;9.15;;
57225;SDS011;43082;43.568;22.256;2023-02-27T00:24:56;15.15;;;8.68;;
57225;SDS011;43082;43.568;22.256;2023-02-27T00:27:21;17.00;;;10.93;;
57225;SDS011;43082;43.568;22.256;2023-02-27T00:29:47;12.43;;;7.50;;
57225;SDS011;43082;43.568;22.256;2023-02-27T00:32:12;11.70;;;7.90;;
57225;SDS011;43082;43.568;22.256;2023-02-27T00:34:38;14.63;;;7.82;;
57225;SDS011;43082;43.568;22.256;2023-02-27T00:37:03;10.57;;;5.82;;
57225;SDS011;43082;43.568;22.256;2023-02-27T00:39:29;5.45;;;2.17;;
57225;SDS011;43082;43.568;22.256;2023-02-27T00:41:54;8.57;;;3.72;;
57225;SDS011;43082;43.568;22.256;2023-02-27T00:44:19;9.95;;;4.88;;
57225;SDS011;43082;43.568;22.256;2023-02-27T00:46:45;12.80;;;7.85;;
57225;SDS011;43082;43.568;22.256;2023-02-27T00:49:10;15.02;;;9.27;;
57225;SDS011;43082;43.568;22.256;2023-02-27T00:51:35;19.15;;;11.43;;
57225;SDS011;43082;43.568;22.256;2023-02-27T00:54:01;14.57;;;7.50;;
57225;SDS011;43082;43.568;22.256;2023-02-27T00:56:27;11.70;;;6.20;;
57225;SDS011;43082;43.568;22.256;2023-02-27T00:58:53;14.63;;;7.45;;
57225;SDS011;43082;43.568;22.256;2023-02-27T01:01:18;11.95;;;5.95;;
57225;SDS011;43082;43.568;22.256;2023-02-27T01:03:43;12.90;;;6.80;;
57225;SDS011;43082;43.568;22.256;2023-02-27T01:06:09;8.27;;;3.65;;
57225;SDS011;43082;43.568;22.256;2023-02-27T01:08:34;11.10;;;5.18;;
57225;SDS011;43082;43.568;22.256;2023-02-27T01:11:00;13.82;;;6.63;;
57225;SDS011;43082;43.568;22.256;2023-02-27T01:13:25;10.07;;;5.20;;
57225;SDS011;43082;43.568;22.256;2023-02-27T01:15:50;11.95;;;5.70;;
57225;SDS011;43082;43.568;22.256;2023-02-27T01:18:16;13.15;;;6.18;;
57225;SDS011;43082;43.568;22.256;2023-02-27T01:20:41;8.20;;;3.60;;
57225;SDS011;43082;43.568;22.256;2023-02-27T01:23:07;11.48;;;5.05;;
57225;SDS011;43082;43.568;22.256;2023-02-27T01:25:32;13.43;;;6.95;;
57225;SDS011;43082;43.568;22.256;2023-02-27T01:27:57;15.30;;;8.15;;
57225;SDS011;43082;43.568;22.256;2023-02-27T01:30:23;15.43;;;7.90;;
57225;SDS011;43082;43.568;22.256;2023-02-27T01:32:48;13.98;;;7.55;;
57225;SDS011;43082;43.568;22.256;2023-02-27T01:35:13;15.85;;;8.25;;
57225;SDS011;43082;43.568;22.256;2023-02-27T01:37:39;14.93;;;7.93;;
57225;SDS011;43082;43.568;22.256;2023-02-27T01:40:05;16.08;;;8.27;;
57225;SDS011;43082;43.568;22.256;2023-02-27T01:42:33;14.50;;;7.80;;
57225;SDS011;43082;43.568;22.256;2023-02-27T01:47:43;10.38;;;4.95;;
57225;SDS011;43082;43.568;22.256;2023-02-27T01:50:11;11.03;;;5.97;;
57225;SDS011;43082;43.568;22.256;2023-02-27T01:52:38;10.68;;;4.85;;
57225;SDS011;43082;43.568;22.256;2023-02-27T01:55:04;11.45;;;5.70;;
57225;SDS011;43082;43.568;22.256;2023-02-27T01:57:32;13.48;;;7.38;;
57225;SDS011;43082;43.568;22.256;2023-02-27T01:59:58;15.82;;;7.85;;
57225;SDS011;43082;43.568;22.256;2023-02-27T02:02:32;11.30;;;5.25;;
57225;SDS011;43082;43.568;22.256;2023-02-27T02:05:00;12.02;;;6.47;;
57225;SDS011;43082;43.568;22.256;2023-02-27T02:07:26;11.70;;;6.07;;
57225;SDS011;43082;43.568;22.256;2023-02-27T02:09:53;13.18;;;6.90;;
57225;SDS011;43082;43.568;22.256;2023-02-27T02:12:21;14.02;;;6.78;;
57225;SDS011;43082;43.568;22.256;2023-02-27T02:14:49;11.45;;;5.72;;
57225;SDS011;43082;43.568;22.256;2023-02-27T02:42:38;9.60;;;4.05;;
57225;SDS011;43082;43.568;22.256;2023-02-27T02:45:12;7.70;;;3.80;;
57225;SDS011;43082;43.568;22.256;2023-02-27T02:50:43;6.10;;;2.80;;
57225;SDS011;43082;43.568;22.256;2023-02-27T02:55:49;6.22;;;2.47;;
57225;SDS011;43082;43.568;22.256;2023-02-27T02:58:35;6.80;;;3.55;;
57225;SDS011;43082;43.568;22.256;2023-02-27T03:01:15;7.28;;;3.55;;
57225;SDS011;43082;43.568;22.256;2023-02-27T03:04:00;4.95;;;2.05;;
57225;SDS011;43082;43.568;22.256;2023-02-27T03:06:30;6.38;;;2.75;;
57225;SDS011;43082;43.568;22.256;2023-02-27T03:09:10;6.40;;;3.00;;
57225;SDS011;43082;43.568;22.256;2023-02-27T03:11:39;8.88;;;4.60;;
57225;SDS011;43082;43.568;22.256;2023-02-27T03:14:09;7.40;;;3.60;;
57225;SDS011;43082;43.568;22.256;2023-02-27T03:16:57;7.45;;;3.17;;
57225;SDS011;43082;43.568;22.256;2023-02-27T03:19:26;6.40;;;2.58;;
57225;SDS011;43082;43.568;22.256;2023-02-27T03:22:07;6.10;;;2.90;;
57225;SDS011;43082;43.568;22.256;2023-02-27T03:24:36;5.40;;;2.38;;
57225;SDS011;43082;43.568;22.256;2023-02-27T03:27:04;6.20;;;2.53;;
57225;SDS011;43082;43.568;22.256;2023-02-27T03:29:36;4.93;;;2.08;;
57225;SDS011;43082;43.568;22.256;2023-02-27T03:32:19;5.30;;;2.30;;
57225;SDS011;43082;43.568;22.256;2023-02-27T03:34:54;5.68;;;2.30;;
57225;SDS011;43082;43.568;22.256;2023-02-27T03:37:29;5.47;;;2.40;;
57225;SDS011;43082;43.568;22.256;2023-02-27T03:42:36;4.35;;;1.90;;
57225;SDS011;43082;43.568;22.256;2023-02-27T03:47:48;6.07;;;2.92;;
57225;SDS011;43082;43.568;22.256;2023-02-27T03:50:14;7.18;;;3.50;;
57225;SDS011;43082;43.568;22.256;2023-02-27T03:52:39;6.90;;;2.90;;
57225;SDS011;43082;43.568;22.256;2023-02-27T03:55:07;6.60;;;3.22;;
57225;SDS011;43082;43.568;22.256;2023-02-27T03:57:54;6.80;;;3.30;;
57225;SDS011;43082;43.568;22.256;2023-02-27T04:00:20;6.25;;;3.45;;
57225;SDS011;43082;43.568;22.256;2023-02-27T04:02:47;6.70;;;3.10;;
57225;SDS011;43082;43.568;22.256;2023-02-27T04:05:17;5.43;;;2.72;;
57225;SDS011;43082;43.568;22.256;2023-02-27T04:10:32;6.70;;;3.47;;
57225;SDS011;43082;43.568;22.256;2023-02-27T04:16:13;6.00;;;3.13;;
57225;SDS011;43082;43.568;22.256;2023-02-27T04:32:40;8.02;;;4.45;;
57225;SDS011;43082;43.568;22.256;2023-02-27T04:35:12;8.43;;;4.50;;
57225;SDS011;43082;43.568;22.256;2023-02-27T04:37:49;10.20;;;5.68;;
57225;SDS011;43082;43.568;22.256;2023-02-27T04:40:24;8.60;;;4.85;;
57225;SDS011;43082;43.568;22.256;2023-02-27T04:43:02;8.57;;;4.82;;
57225;SDS011;43082;43.568;22.256;2023-02-27T04:45:30;8.40;;;4.78;;
57225;SDS011;43082;43.568;22.256;2023-02-27T04:48:31;6.68;;;3.78;;
57225;SDS011;43082;43.568;22.256;2023-02-27T04:53:49;7.30;;;3.90;;
57225;SDS011;43082;43.568;22.256;2023-02-27T04:56:21;7.15;;;4.03;;
57225;SDS011;43082;43.568;22.256;2023-02-27T04:58:51;6.25;;;3.28;;
57225;SDS011;43082;43.568;22.256;2023-02-27T05:01:21;8.00;;;4.40;;
57225;SDS011;43082;43.568;22.256;2023-02-27T05:03:49;7.82;;;4.28;;
57225;SDS011;43082;43.568;22.256;2023-02-27T05:06:16;8.75;;;5.32;;
57225;SDS011;43082;43.568;22.256;2023-02-27T05:08:44;9.20;;;5.70;;
57225;SDS011;43082;43.568;22.256;2023-02-27T05:11:31;8.77;;;5.15;;
57225;SDS011;43082;43.568;22.256;2023-02-27T05:14:10;8.63;;;5.10;;
57225;SDS011;43082;43.568;22.256;2023-02-27T05:16:40;8.32;;;4.28;;
57225;SDS011;43082;43.568;22.256;2023-02-27T05:19:10;7.93;;;4.00;;
57225;SDS011;43082;43.568;22.256;2023-02-27T05:21:38;7.05;;;3.95;;
57225;SDS011;43082;43.568;22.256;2023-02-27T05:27:32;7.18;;;4.18;;
57225;SDS011;43082;43.568;22.256;2023-02-27T05:30:04;14.13;;;7.95;;
57225;SDS011;43082;43.568;22.256;2023-02-27T05:37:50;10.18;;;6.18;;
57225;SDS011;43082;43.568;22.256;2023-02-27T05:40:39;9.13;;;5.40;;
57225;SDS011;43082;43.568;22.256;2023-02-27T05:43:10;8.77;;;5.32;;
57225;SDS011;43082;43.568;22.256;2023-02-27T05:45:39;10.85;;;6.45;;
57225;SDS011;43082;43.568;22.256;2023-02-27T05:48:08;10.68;;;6.82;;
57225;SDS011;43082;43.568;22.256;2023-02-27T05:50:39;11.48;;;7.65;;
57225;SDS011;43082;43.568;22.256;2023-02-27T05:53:06;11.52;;;7.70;;
57225;SDS011;43082;43.568;22.256;2023-02-27T05:55:38;12.07;;;7.20;;
57225;SDS011;43082;43.568;22.256;2023-02-27T05:58:12;6.40;;;3.50;;
57225;SDS011;43082;43.568;22.256;2023-02-27T06:03:18;49.33;;;31.08;;
57225;SDS011;43082;43.568;22.256;2023-02-27T06:05:43;46.90;;;34.03;;
57225;SDS011;43082;43.568;22.256;2023-02-27T06:08:09;28.75;;;21.35;;
57225;SDS011;43082;43.568;22.256;2023-02-27T06:10:35;41.85;;;29.17;;
57225;SDS011;43082;43.568;22.256;2023-02-27T06:13:01;22.02;;;14.02;;
57225;SDS011;43082;43.568;22.256;2023-02-27T06:15:26;22.25;;;14.02;;
57225;SDS011;43082;43.568;22.256;2023-02-27T06:17:52;20.23;;;11.23;;
57225;SDS011;43082;43.568;22.256;2023-02-27T06:20:17;16.73;;;10.77;;
57225;SDS011;43082;43.568;22.256;2023-02-27T06:22:43;18.85;;;8.57;;
57225;SDS011;43082;43.568;22.256;2023-02-27T06:25:08;13.90;;;8.60;;
57225;SDS011;43082;43.568;22.256;2023-02-27T06:27:34;18.88;;;11.35;;
57225;SDS011;43082;43.568;22.256;2023-02-27T06:29:59;12.60;;;6.80;;
57225;SDS011;43082;43.568;22.256;2023-02-27T06:32:24;22.23;;;12.73;;
57225;SDS011;43082;43.568;22.256;2023-02-27T06:34:50;16.27;;;10.55;;
57225;SDS011;43082;43.568;22.256;2023-02-27T06:37:16;15.13;;;11.02;;
57225;SDS011;43082;43.568;22.256;2023-02-27T06:39:42;18.95;;;12.88;;
57225;SDS011;43082;43.568;22.256;2023-02-27T06:42:07;17.63;;;9.68;;
57225;SDS011;43082;43.568;22.256;2023-02-27T06:44:33;15.60;;;9.38;;
57225;SDS011;43082;43.568;22.256;2023-02-27T06:46:58;13.85;;;8.25;;
57225;SDS011;43082;43.568;22.256;2023-02-27T06:49:23;21.45;;;13.75;;
57225;SDS011;43082;43.568;22.256;2023-02-27T06:51:49;16.92;;;11.32;;
57225;SDS011;43082;43.568;22.256;2023-02-27T06:54:14;15.88;;;11.52;;
57225;SDS011;43082;43.568;22.256;2023-02-27T06:56:40;14.75;;;9.18;;
57225;SDS011;43082;43.568;22.256;2023-02-27T06:59:05;14.50;;;8.93;;
57225;SDS011;43082;43.568;22.256;2023-02-27T07:01:31;17.05;;;11.45;;
57225;SDS011;43082;43.568;22.256;2023-02-27T07:03:56;11.77;;;7.47;;
57225;SDS011;43082;43.568;22.256;2023-02-27T07:06:21;13.63;;;9.43;;
57225;SDS011;43082;43.568;22.256;2023-02-27T07:08:47;21.50;;;13.65;;
57225;SDS011;43082;43.568;22.256;2023-02-27T07:11:12;21.08;;;13.73;;
57225;SDS011;43082;43.568;22.256;2023-02-27T07:13:38;26.20;;;13.52;;
57225;SDS011;43082;43.568;22.256;2023-02-27T07:16:03;19.23;;;11.68;;
57225;SDS011;43082;43.568;22.256;2023-02-27T07:18:29;18.92;;;12.73;;
57225;SDS011;43082;43.568;22.256;2023-02-27T07:20:54;23.23;;;16.73;;
57225;SDS011;43082;43.568;22.256;2023-02-27T07:23:20;22.20;;;14.25;;
57225;SDS011;43082;43.568;22.256;2023-02-27T07:25:47;14.85;;;10.40;;
57225;SDS011;43082;43.568;22.256;2023-02-27T07:28:12;16.67;;;11.20;;
57225;SDS011;43082;43.568;22.256;2023-02-27T07:30:38;12.38;;;8.75;;
57225;SDS011;43082;43.568;22.256;2023-02-27T07:33:03;13.38;;;9.23;;
57225;SDS011;43082;43.568;22.256;2023-02-27T07:35:29;11.75;;;7.95;;
57225;SDS011;43082;43.568;22.256;2023-02-27T07:37:55;14.85;;;7.90;;
57225;SDS011;43082;43.568;22.256;2023-02-27T07:40:20;13.25;;;8.30;;
57225;SDS011;43082;43.568;22.256;2023-02-27T07:42:46;14.32;;;8.40;;
57225;SDS011;43082;43.568;22.256;2023-02-27T07:45:12;21.42;;;12.32;;
57225;SDS011;43082;43.568;22.256;2023-02-27T07:47:38;20.50;;;14.43;;
57225;SDS011;43082;43.568;22.256;2023-02-27T07:50:03;15.60;;;11.18;;
57225;SDS011;43082;43.568;22.256;2023-02-27T07:52:29;19.05;;;13.82;;
57225;SDS011;43082;43.568;22.256;2023-02-27T07:54:54;27.83;;;19.08;;
57225;SDS011;43082;43.568;22.256;2023-02-27T07:57:19;22.98;;;17.17;;
57225;SDS011;43082;43.568;22.256;2023-02-27T07:59:45;16.20;;;11.95;;
57225;SDS011;43082;43.568;22.256;2023-02-27T08:02:12;17.58;;;13.43;;
57225;SDS011;43082;43.568;22.256;2023-02-27T08:04:38;18.40;;;14.65;;
57225;SDS011;43082;43.568;22.256;2023-02-27T08:07:03;17.10;;;12.20;;
57225;SDS011;43082;43.568;22.256;2023-02-27T08:09:29;14.13;;;9.95;;
57225;SDS011;43082;43.568;22.256;2023-02-27T08:11:55;20.15;;;15.38;;
57225;SDS011;43082;43.568;22.256;2023-02-27T08:14:21;22.20;;;16.15;;
57225;SDS011;43082;43.568;22.256;2023-02-27T08:16:47;17.80;;;13.63;;
57225;SDS011;43082;43.568;22.256;2023-02-27T08:19:12;18.40;;;13.80;;
57225;SDS011;43082;43.568;22.256;2023-02-27T08:21:38;18.83;;;13.80;;
57225;SDS011;43082;43.568;22.256;2023-02-27T08:24:04;19.48;;;13.32;;
57225;SDS011;43082;43.568;22.256;2023-02-27T08:26:29;18.85;;;13.60;;
57225;SDS011;43082;43.568;22.256;2023-02-27T08:28:55;17.38;;;13.05;;
57225;SDS011;43082;43.568;22.256;2023-02-27T08:31:20;18.02;;;13.30;;
57225;SDS011;43082;43.568;22.256;2023-02-27T08:33:46;14.63;;;10.70;;
57225;SDS011;43082;43.568;22.256;2023-02-27T08:36:11;15.20;;;10.60;;
57225;SDS011;43082;43.568;22.256;2023-02-27T08:38:37;14.18;;;10.43;;
57225;SDS011;43082;43.568;22.256;2023-02-27T08:41:02;10.80;;;7.85;;
57225;SDS011;43082;43.568;22.256;2023-02-27T08:43:28;12.98;;;7.97;;
57225;SDS011;43082;43.568;22.256;2023-02-27T08:45:53;11.55;;;8.40;;
57225;SDS011;43082;43.568;22.256;2023-02-27T08:48:18;18.52;;;13.18;;
57225;SDS011;43082;43.568;22.256;2023-02-27T08:50:44;13.95;;;9.80;;
57225;SDS011;43082;43.568;22.256;2023-02-27T08:53:10;14.38;;;10.80;;
57225;SDS011;43082;43.568;22.256;2023-02-27T08:55:36;12.20;;;8.55;;
57225;SDS011;43082;43.568;22.256;2023-02-27T08:58:01;12.38;;;8.40;;
57225;SDS011;43082;43.568;22.256;2023-02-27T09:00:26;12.75;;;9.00;;
57225;SDS011;43082;43.568;22.256;2023-02-27T09:02:53;12.82;;;9.65;;
57225;SDS011;43082;43.568;22.256;2023-02-27T09:05:18;15.40;;;10.32;;
57225;SDS011;43082;43.568;22.256;2023-02-27T09:07:44;12.18;;;9.30;;
57225;SDS011;43082;43.568;22.256;2023-02-27T09:10:10;13.02;;;9.27;;
57225;SDS011;43082;43.568;22.256;2023-02-27T09:12:37;14.75;;;10.75;;
57225;SDS011;43082;43.568;22.256;2023-02-27T09:15:03;17.00;;;13.02;;
57225;SDS011;43082;43.568;22.256;2023-02-27T09:17:29;17.52;;;12.77;;
57225;SDS011;43082;43.568;22.256;2023-02-27T09:19:55;20.60;;;14.50;;
57225;SDS011;43082;43.568;22.256;2023-02-27T09:22:21;17.55;;;12.60;;
57225;SDS011;43082;43.568;22.256;2023-02-27T09:24:46;14.00;;;10.20;;
57225;SDS011;43082;43.568;22.256;2023-02-27T09:27:12;15.45;;;10.80;;
57225;SDS011;43082;43.568;22.256;2023-02-27T09:29:37;16.40;;;9.68;;
57225;SDS011;43082;43.568;22.256;2023-02-27T09:32:02;20.13;;;15.07;;
57225;SDS011;43082;43.568;22.256;2023-02-27T09:34:28;20.67;;;14.95;;
57225;SDS011;43082;43.568;22.256;2023-02-27T09:36:53;18.50;;;12.82;;
57225;SDS011;43082;43.568;22.256;2023-02-27T09:39:22;18.73;;;13.23;;
57225;SDS011;43082;43.568;22.256;2023-02-27T09:41:51;16.58;;;11.95;;
57225;SDS011;43082;43.568;22.256;2023-02-27T09:44:32;18.33;;;12.55;;
57225;SDS011;43082;43.568;22.256;2023-02-27T09:47:02;15.60;;;11.63;;
57225;SDS011;43082;43.568;22.256;2023-02-27T09:49:30;18.65;;;12.63;;
57225;SDS011;43082;43.568;22.256;2023-02-27T09:52:09;17.17;;;12.68;;
57225;SDS011;43082;43.568;22.256;2023-02-27T09:54:37;90.45;;;57.67;;
57225;SDS011;43082;43.568;22.256;2023-02-27T09:57:03;31.20;;;22.33;;
57225;SDS011;43082;43.568;22.256;2023-02-27T09:59:41;37.85;;;26.17;;
57225;SDS011;43082;43.568;22.256;2023-02-27T10:07:40;16.52;;;11.32;;
57225;SDS011;43082;43.568;22.256;2023-02-27T10:17:51;15.40;;;12.48;;
57225;SDS011;43082;43.568;22.256;2023-02-27T10:20:36;18.17;;;12.55;;
57225;SDS011;43082;43.568;22.256;2023-02-27T10:23:15;15.30;;;11.43;;
57225;SDS011;43082;43.568;22.256;2023-02-27T10:25:43;18.55;;;14.20;;
57225;SDS011;43082;43.568;22.256;2023-02-27T10:28:12;16.23;;;12.63;;
57225;SDS011;43082;43.568;22.256;2023-02-27T10:30:52;15.80;;;12.18;;
57225;SDS011;43082;43.568;22.256;2023-02-27T10:33:24;22.38;;;16.20;;
57225;SDS011;43082;43.568;22.256;2023-02-27T10:35:53;16.75;;;12.43;;
57225;SDS011;43082;43.568;22.256;2023-02-27T10:41:09;19.35;;;13.27;;
57225;SDS011;43082;43.568;22.256;2023-02-27T10:43:36;24.38;;;18.80;;
57225;SDS011;43082;43.568;22.256;2023-02-27T10:46:02;27.92;;;22.13;;
57225;SDS011;43082;43.568;22.256;2023-02-27T10:48:31;24.80;;;18.67;;
57225;SDS011;43082;43.568;22.256;2023-02-27T10:51:18;19.80;;;15.10;;
57225;SDS011;43082;43.568;22.256;2023-02-27T10:53:44;23.63;;;20.27;;
57225;SDS011;43082;43.568;22.256;2023-02-27T10:56:12;22.23;;;16.60;;
57225;SDS011;43082;43.568;22.256;2023-02-27T10:58:40;25.75;;;19.52;;
57225;SDS011;43082;43.568;22.256;2023-02-27T11:01:06;28.50;;;22.25;;
57225;SDS011;43082;43.568;22.256;2023-02-27T11:03:40;47.75;;;36.28;;
57225;SDS011;43082;43.568;22.256;2023-02-27T11:06:19;31.58;;;25.05;;
57225;SDS011;43082;43.568;22.256;2023-02-27T11:11:37;29.30;;;23.70;;
57225;SDS011;43082;43.568;22.256;2023-02-27T11:16:56;28.50;;;21.35;;
57225;SDS011;43082;43.568;22.256;2023-02-27T11:19:24;21.73;;;16.23;;
57225;SDS011;43082;43.568;22.256;2023-02-27T11:22:00;25.42;;;18.73;;
57225;SDS011;43082;43.568;22.256;2023-02-27T11:24:26;19.13;;;14.98;;
57225;SDS011;43082;43.568;22.256;2023-02-27T11:27:00;27.13;;;21.63;;
57225;SDS011;43082;43.568;22.256;2023-02-27T11:29:29;16.77;;;12.80;;
57225;SDS011;43082;43.568;22.256;2023-02-27T11:32:02;19.95;;;15.20;;
57225;SDS011;43082;43.568;22.256;2023-02-27T11:34:38;18.77;;;12.80;;
57225;SDS011;43082;43.568;22.256;2023-02-27T11:37:51;24.05;;;19.80;;
57225;SDS011;43082;43.568;22.256;2023-02-27T11:42:27;14.40;;;10.68;;
57225;SDS011;43082;43.568;22.256;2023-02-27T11:45:05;18.75;;;13.18;;
57225;SDS011;43082;43.568;22.256;2023-02-27T11:47:49;90.78;;;55.47;;
57225;SDS011;43082;43.568;22.256;2023-02-27T11:50:28;30.00;;;24.95;;
57225;SDS011;43082;43.568;22.256;2023-02-27T11:53:19;18.95;;;15.75;;
57225;SDS011;43082;43.568;22.256;2023-02-27T11:55:55;26.17;;;19.02;;
57225;SDS011;43082;43.568;22.256;2023-02-27T11:58:24;26.73;;;21.73;;
57225;SDS011;43082;43.568;22.256;2023-02-27T12:01:36;12.50;;;8.73;;
57225;SDS011;43082;43.568;22.256;2023-02-27T12:04:08;14.82;;;11.48;;
57225;SDS011;43082;43.568;22.256;2023-02-27T12:06:39;16.27;;;11.95;;
57225;SDS011;43082;43.568;22.256;2023-02-27T12:09:50;15.35;;;11.05;;
57225;SDS011;43082;43.568;22.256;2023-02-27T12:12:12;19.17;;;13.27;;
57225;SDS011;43082;43.568;22.256;2023-02-27T12:14:43;13.35;;;9.90;;
57225;SDS011;43082;43.568;22.256;2023-02-27T12:17:22;13.45;;;8.35;;
57225;SDS011;43082;43.568;22.256;2023-02-27T12:19:59;15.93;;;10.10;;
57225;SDS011;43082;43.568;22.256;2023-02-27T12:22:33;17.90;;;11.20;;
57225;SDS011;43082;43.568;22.256;2023-02-27T12:25:14;11.45;;;7.78;;
57225;SDS011;43082;43.568;22.256;2023-02-27T12:27:43;16.88;;;11.88;;
57225;SDS011;43082;43.568;22.256;2023-02-27T12:30:26;26.83;;;18.92;;
57225;SDS011;43082;43.568;22.256;2023-02-27T12:33:12;30.40;;;21.95;;
57225;SDS011;43082;43.568;22.256;2023-02-27T12:35:43;21.88;;;15.00;;
57225;SDS011;43082;43.568;22.256;2023-02-27T12:38:12;30.67;;;23.63;;
57225;SDS011;43082;43.568;22.256;2023-02-27T12:40:42;25.67;;;20.00;;
57225;SDS011;43082;43.568;22.256;2023-02-27T12:46:13;81.22;;;46.60;;
57225;SDS011;43082;43.568;22.256;2023-02-27T12:51:42;20.10;;;12.13;;
57225;SDS011;43082;43.568;22.256;2023-02-27T12:57:17;17.55;;;12.38;;
57225;SDS011;43082;43.568;22.256;2023-02-27T13:10:33;22.23;;;17.58;;
57225;SDS011;43082;43.568;22.256;2023-02-27T13:13:02;20.40;;;14.32;;
57225;SDS011;43082;43.568;22.256;2023-02-27T13:15:36;22.52;;;16.20;;
57225;SDS011;43082;43.568;22.256;2023-02-27T13:20:56;20.02;;;14.05;;
57225;SDS011;43082;43.568;22.256;2023-02-27T13:23:27;20.25;;;14.02;;
57225;SDS011;43082;43.568;22.256;2023-02-27T13:26:19;20.52;;;16.90;;
57225;SDS011;43082;43.568;22.256;2023-02-27T13:28:47;26.30;;;20.10;;
57225;SDS011;43082;43.568;22.256;2023-02-27T13:31:31;24.17;;;19.08;;
57225;SDS011;43082;43.568;22.256;2023-02-27T13:36:54;14.10;;;9.65;;
57225;SDS011;43082;43.568;22.256;2023-02-27T13:40:25;21.27;;;16.02;;
57225;SDS011;43082;43.568;22.256;2023-02-27T13:44:55;22.63;;;19.65;;
57225;SDS011;43082;43.568;22.256;2023-02-27T13:49:53;18.98;;;14.63;;
57225;SDS011;43082;43.568;22.256;2023-02-27T13:52:29;20.92;;;17.63;;
57225;SDS011;43082;43.568;22.256;2023-02-27T13:54:59;19.00;;;14.93;;
57225;SDS011;43082;43.568;22.256;2023-02-27T13:57:26;23.83;;;15.10;;
57225;SDS011;43082;43.568;22.256;2023-02-27T13:59:53;15.13;;;11.93;;
57225;SDS011;43082;43.568;22.256;2023-02-27T14:02:27;22.48;;;17.20;;
57225;SDS011;43082;43.568;22.256;2023-02-27T14:04:56;21.63;;;12.65;;
57225;SDS011;43082;43.568;22.256;2023-02-27T14:07:24;16.35;;;12.30;;
57225;SDS011;43082;43.568;22.256;2023-02-27T14:10:03;18.50;;;13.35;;
57225;SDS011;43082;43.568;22.256;2023-02-27T14:12:38;17.88;;;12.13;;
57225;SDS011;43082;43.568;22.256;2023-02-27T14:17:47;17.08;;;12.60;;
57225;SDS011;43082;43.568;22.256;2023-02-27T14:25:20;19.17;;;15.00;;
57225;SDS011;43082;43.568;22.256;2023-02-27T14:27:55;14.77;;;10.40;;
57225;SDS011;43082;43.568;22.256;2023-02-27T14:31:04;18.48;;;13.13;;
57225;SDS011;43082;43.568;22.256;2023-02-27T14:33:22;16.27;;;10.18;;
57225;SDS011;43082;43.568;22.256;2023-02-27T14:35:58;25.63;;;17.58;;
57225;SDS011;43082;43.568;22.256;2023-02-27T14:38:26;25.70;;;18.17;;
57225;SDS011;43082;43.568;22.256;2023-02-27T14:40:59;20.17;;;14.05;;
57225;SDS011;43082;43.568;22.256;2023-02-27T14:43:39;33.30;;;20.95;;
57225;SDS011;43082;43.568;22.256;2023-02-27T14:46:50;40.30;;;28.33;;
57225;SDS011;43082;43.568;22.256;2023-02-27T14:48:59;22.95;;;15.95;;
57225;SDS011;43082;43.568;22.256;2023-02-27T14:51:28;46.72;;;31.55;;
57225;SDS011;43082;43.568;22.256;2023-02-27T14:57:01;43.97;;;32.15;;
57225;SDS011;43082;43.568;22.256;2023-02-27T14:59:44;69.68;;;50.35;;
57225;SDS011;43082;43.568;22.256;2023-02-27T15:02:20;33.83;;;24.85;;
57225;SDS011;43082;43.568;22.256;2023-02-27T15:04:54;32.97;;;23.27;;
57225;SDS011;43082;43.568;22.256;2023-02-27T15:07:37;34.25;;;25.33;;
57225;SDS011;43082;43.568;22.256;2023-02-27T15:10:05;28.70;;;22.70;;
57225;SDS011;43082;43.568;22.256;2023-02-27T15:12:36;32.45;;;23.02;;
57225;SDS011;43082;43.568;22.256;2023-02-27T15:15:03;31.42;;;20.73;;
57225;SDS011;43082;43.568;22.256;2023-02-27T15:17:39;25.13;;;18.98;;
57225;SDS011;43082;43.568;22.256;2023-02-27T15:20:23;33.50;;;24.23;;
57225;SDS011;43082;43.568;22.256;2023-02-27T15:22:54;34.03;;;24.40;;
57225;SDS011;43082;43.568;22.256;2023-02-27T15:25:28;29.58;;;21.35;;
57225;SDS011;43082;43.568;22.256;2023-02-27T15:27:56;36.15;;;22.92;;
57225;SDS011;43082;43.568;22.256;2023-02-27T15:30:26;35.38;;;22.90;;
57225;SDS011;43082;43.568;22.256;2023-02-27T15:32:52;31.92;;;22.42;;
57225;SDS011;43082;43.568;22.256;2023-02-27T15:37:45;28.60;;;22.15;;
57225;SDS011;43082;43.568;22.256;2023-02-27T15:40:16;28.38;;;21.75;;
57225;SDS011;43082;43.568;22.256;2023-02-27T15:42:47;24.85;;;19.98;;
57225;SDS011;43082;43.568;22.256;2023-02-27T15:45:16;24.65;;;20.27;;
57225;SDS011;43082;43.568;22.256;2023-02-27T15:47:46;26.98;;;20.40;;
57225;SDS011;43082;43.568;22.256;2023-02-27T15:52:41;32.75;;;22.45;;
57225;SDS011;43082;43.568;22.256;2023-02-27T15:55:13;25.42;;;19.05;;
57225;SDS011;43082;43.568;22.256;2023-02-27T15:57:41;23.98;;;18.70;;
57225;SDS011;43082;43.568;22.256;2023-02-27T16:00:08;30.13;;;20.52;;
57225;SDS011;43082;43.568;22.256;2023-02-27T16:05:21;29.00;;;22.02;;
57225;SDS011;43082;43.568;22.256;2023-02-27T16:07:49;28.95;;;22.02;;
57225;SDS011;43082;43.568;22.256;2023-02-27T16:10:22;29.85;;;23.52;;
57225;SDS011;43082;43.568;22.256;2023-02-27T16:12:49;29.52;;;22.40;;
57225;SDS011;43082;43.568;22.256;2023-02-27T16:20:40;36.42;;;27.88;;
57225;SDS011;43082;43.568;22.256;2023-02-27T16:25:58;36.85;;;29.98;;
57225;SDS011;43082;43.568;22.256;2023-02-27T16:30:59;88.97;;;58.08;;
57225;SDS011;43082;43.568;22.256;2023-02-27T16:33:25;66.25;;;49.92;;
57225;SDS011;43082;43.568;22.256;2023-02-27T16:36:02;62.08;;;49.65;;
57225;SDS011;43082;43.568;22.256;2023-02-27T16:38:41;41.35;;;36.30;;
57225;SDS011;43082;43.568;22.256;2023-02-27T16:41:08;27.35;;;20.63;;
57225;SDS011;43082;43.568;22.256;2023-02-27T16:43:37;24.92;;;19.58;;
57225;SDS011;43082;43.568;22.256;2023-02-27T16:46:03;26.70;;;20.17;;
57225;SDS011;43082;43.568;22.256;2023-02-27T16:48:28;40.90;;;29.80;;
57225;SDS011;43082;43.568;22.256;2023-02-27T16:50:54;29.90;;;22.77;;
57225;SDS011;43082;43.568;22.256;2023-02-27T16:53:19;29.92;;;23.02;;
57225;SDS011;43082;43.568;22.256;2023-02-27T16:55:44;35.63;;;26.40;;
57225;SDS011;43082;43.568;22.256;2023-02-27T16:58:13;34.00;;;25.67;;
57225;SDS011;43082;43.568;22.256;2023-02-27T17:00:43;33.08;;;25.77;;
57225;SDS011;43082;43.568;22.256;2023-02-27T17:03:08;28.60;;;22.05;;
57225;SDS011;43082;43.568;22.256;2023-02-27T17:05:34;35.40;;;26.45;;
57225;SDS011;43082;43.568;22.256;2023-02-27T17:08:00;31.95;;;24.50;;